createdAt,value
2018-12-12T00:21:36.472Z,99593.28
2018-12-12T00:27:09.151Z,99589.72
2018-12-12T00:29:49.597Z,99589.81
2018-12-12T00:38:14.544Z,99591.95
2018-12-12T00:40:54.943Z,99596.79
2018-12-12T01:41:14.985Z,99575.94
2018-12-12T01:43:55.285Z,99577.39
2018-12-12T01:46:35.678Z,99581.03
2018-12-12T01:49:16.067Z,99579.05
2018-12-12T01:51:43.596Z,99584.66
2018-12-12T01:54:23.915Z,99582.05
2018-12-12T01:57:04.360Z,99582.82
2018-12-12T01:59:44.771Z,99580.52
2018-12-12T02:02:25.216Z,99583.34
2018-12-12T02:05:05.647Z,99579.75
2018-12-12T02:07:33.156Z,99577.52
2018-12-12T02:10:13.701Z,99575.41
2018-12-12T02:12:53.989Z,99581.89
2018-12-12T02:15:41.798Z,99579.36
2018-12-12T02:23:53.825Z,99575.67
2018-12-12T02:26:21.310Z,99575.80
2018-12-12T02:29:01.233Z,99573.67
2018-12-12T02:31:41.652Z,99568.99
2018-12-12T02:34:09.153Z,99569.43
2018-12-12T02:36:49.513Z,99572.50
2018-12-12T02:39:29.900Z,99571.27
2018-12-12T02:41:57.445Z,99575.23
2018-12-12T02:44:24.934Z,99573.63
2018-12-12T02:46:52.490Z,99574.09
2018-12-12T02:49:32.819Z,99571.09
2018-12-12T02:52:13.245Z,99568.20
2018-12-12T02:54:53.683Z,99572.16
2018-12-12T02:57:42.458Z,99574.80
2018-12-12T03:49:00.251Z,99569.94
2018-12-12T03:51:27.752Z,99570.83
2018-12-12T03:53:55.288Z,99568.66
2018-12-12T03:56:22.775Z,99567.48
2018-12-12T03:59:08.890Z,99581.63
2018-12-12T04:01:36.407Z,99577.72
2018-12-12T04:07:02.680Z,99584.89
2018-12-12T04:21:12.160Z,99606.04
2018-12-12T04:23:52.593Z,99602.00
2018-12-12T04:29:28.242Z,99611.09
2018-12-12T04:31:55.829Z,99604.66
2018-12-12T04:34:36.163Z,99605.00
2018-12-12T04:37:16.585Z,99600.62
2018-12-12T04:39:57.011Z,99602.21
2018-12-12T04:42:37.480Z,99612.91
2018-12-12T04:45:17.905Z,99610.02
2018-12-12T04:47:58.342Z,99609.38
2018-12-12T04:50:38.729Z,99602.58
2018-12-12T04:53:19.188Z,99607.81
2018-12-12T04:55:59.612Z,99604.77
2018-12-12T05:01:32.311Z,99610.66
2018-12-12T05:04:12.711Z,99614.03
2018-12-12T05:06:53.204Z,99611.46
2018-12-12T05:09:34.631Z,99616.27
2018-12-12T05:12:15.052Z,99619.73
2018-12-12T05:14:55.447Z,99619.22
2018-12-12T05:17:35.849Z,99620.02
2018-12-12T05:20:16.296Z,99625.10
2018-12-12T05:22:56.748Z,99632.55
2018-12-12T05:25:37.281Z,99627.83
2018-12-12T05:28:18.492Z,99631.94
2018-12-12T05:30:59.392Z,99629.38
2018-12-12T05:33:39.434Z,99631.25
2018-12-12T05:36:19.806Z,99632.86
2018-12-12T05:39:00.238Z,99630.64
2018-12-12T05:41:40.668Z,99633.58
2018-12-12T05:44:21.233Z,99635.85
2018-12-12T05:47:01.516Z,99642.37
2018-12-12T05:49:41.966Z,99645.92
2018-12-12T05:52:22.363Z,99655.05
2018-12-12T05:55:02.779Z,99646.17
2018-12-12T05:57:43.263Z,99659.30
2018-12-12T06:00:23.617Z,99658.73
2018-12-12T06:03:04.102Z,99661.47
2018-12-12T06:05:44.509Z,99670.66
2018-12-12T06:08:24.939Z,99672.50
2018-12-12T06:13:58.529Z,99680.36
2018-12-12T06:16:46.452Z,99674.52
2018-12-12T06:33:47.639Z,99700.03
2018-12-12T06:36:15.219Z,99699.66
2018-12-12T06:38:42.788Z,99699.95
2018-12-12T06:41:10.377Z,99703.08
2018-12-12T06:43:51.070Z,99697.92
2018-12-12T06:46:18.624Z,99700.56
2018-12-12T06:48:46.191Z,99699.21
2018-12-12T06:51:13.796Z,99703.13
2018-12-12T06:53:41.361Z,99699.14
2018-12-12T06:56:12.365Z,99703.53
2018-12-12T06:58:44.982Z,99706.56
2018-12-12T07:01:15.071Z,99711.73
2018-12-12T07:03:42.886Z,99700.54
2018-12-12T07:06:11.411Z,99708.75
2018-12-12T07:08:40.285Z,99712.91
2018-12-12T07:11:08.602Z,99710.82
2018-12-12T07:13:36.410Z,99717.78
2018-12-12T07:16:03.992Z,99713.05
2018-12-12T07:18:31.745Z,99716.07
2018-12-12T07:20:59.327Z,99721.19
2018-12-12T07:23:26.910Z,99719.05
2018-12-12T07:25:55.782Z,99728.06
2018-12-12T07:28:23.621Z,99724.50
2018-12-12T07:30:52.485Z,99729.20
2018-12-12T07:33:20.527Z,99733.97
2018-12-12T07:35:48.245Z,99733.63
2018-12-12T07:38:15.909Z,99732.30
2018-12-12T07:40:43.578Z,99734.11
2018-12-12T07:43:11.477Z,99743.80
2018-12-12T07:45:39.155Z,99750.33
2018-12-12T07:48:06.809Z,99755.50
2018-12-12T07:50:34.403Z,99742.84
2018-12-12T07:53:03.004Z,99736.70
2018-12-12T07:55:30.577Z,99731.10
2018-12-12T07:57:58.147Z,99727.32
2018-12-12T08:00:25.654Z,99730.55
2018-12-12T08:02:53.208Z,99727.95
2018-12-12T08:05:21.292Z,99734.14
2018-12-12T08:07:48.843Z,99735.14
2018-12-12T08:10:16.338Z,99734.34
2018-12-12T08:12:43.829Z,99736.02
2018-12-12T08:15:15.968Z,99737.45
2018-12-12T08:17:44.695Z,99739.42
2018-12-12T08:20:12.321Z,99734.28
2018-12-12T08:22:40.925Z,99747.70
2018-12-12T08:25:08.605Z,99743.50
2018-12-12T08:27:36.236Z,99738.23
2018-12-12T08:30:04.724Z,99740.71
2018-12-12T08:32:32.459Z,99737.61
2018-12-12T08:35:00.147Z,99737.22
2018-12-12T08:37:27.724Z,99738.88
2018-12-12T08:39:56.165Z,99738.80
2018-12-12T08:42:23.699Z,99736.77
2018-12-12T08:44:52.476Z,99729.11
2018-12-12T08:47:20.939Z,99727.05
2018-12-12T08:49:48.517Z,99723.85
2018-12-12T08:52:17.923Z,99721.20
2018-12-12T08:54:45.559Z,99726.25
2018-12-12T08:57:13.332Z,99723.12
2018-12-12T08:59:40.917Z,99737.01
2018-12-12T09:02:08.552Z,99731.15
2018-12-12T09:04:36.180Z,99722.89
2018-12-12T09:07:03.861Z,99714.73
2018-12-12T09:09:31.580Z,99696.66
2018-12-12T09:12:00.038Z,99708.48
2018-12-12T09:14:27.763Z,99702.01
2018-12-12T09:16:55.432Z,99699.27
2018-12-12T09:19:22.977Z,99705.89
2018-12-12T09:21:51.254Z,99704.92
2018-12-12T09:24:20.147Z,99702.78
2018-12-12T09:26:48.337Z,99700.24
2018-12-12T09:29:17.066Z,99703.41
2018-12-12T09:31:44.749Z,99698.59
2018-12-12T09:34:12.348Z,99701.59
2018-12-12T09:36:41.335Z,99704.77
2018-12-12T09:39:09.424Z,99709.69
2018-12-12T09:41:37.478Z,99708.84
2018-12-12T09:44:04.998Z,99712.31
2018-12-12T09:46:32.665Z,99707.10
2018-12-12T09:49:01.019Z,99702.68
2018-12-12T09:51:29.964Z,99694.76
2018-12-12T09:53:59.355Z,99694.63
2018-12-12T09:56:27.368Z,99689.11
2018-12-12T09:58:54.938Z,99689.65
2018-12-12T10:01:22.598Z,99692.20
2018-12-12T10:03:50.115Z,99694.97
2018-12-12T10:06:18.390Z,99690.31
2018-12-12T10:08:45.958Z,99696.59
2018-12-12T10:11:14.054Z,99704.23
2018-12-12T10:13:41.635Z,99707.22
2018-12-12T10:16:09.163Z,99704.84
2018-12-12T10:18:36.682Z,99708.11
2018-12-12T10:21:04.197Z,99700.76
2018-12-12T10:23:32.160Z,99707.61
2018-12-12T10:26:00.339Z,99701.61
2018-12-12T10:28:29.552Z,99695.08
2018-12-12T10:30:57.104Z,99689.14
2018-12-12T10:33:24.665Z,99695.09
2018-12-12T10:35:52.162Z,99685.77
2018-12-12T10:41:12.863Z,99682.89
2018-12-12T10:43:40.474Z,99691.74
2018-12-12T10:46:08.034Z,99693.02
2018-12-12T10:48:35.611Z,99682.61
2018-12-12T10:51:03.191Z,99692.99
2018-12-12T10:53:31.800Z,99691.94
2018-12-12T10:55:59.371Z,99679.19
2018-12-12T10:58:26.984Z,99666.84
2018-12-12T11:01:01.150Z,99673.22
2018-12-12T11:03:35.628Z,99662.38
2018-12-12T11:06:03.406Z,99653.16
2018-12-12T11:08:31.051Z,99654.13
2018-12-12T11:10:58.662Z,99646.89
2018-12-12T11:13:26.192Z,99643.92
2018-12-12T11:15:53.875Z,99651.46
2018-12-12T11:18:21.470Z,99646.98
2018-12-12T11:20:49.039Z,99653.16
2018-12-12T11:23:16.668Z,99653.92
2018-12-12T11:25:44.963Z,99670.00
2018-12-12T11:28:12.829Z,99663.64
2018-12-12T11:30:41.744Z,99673.16
2018-12-12T11:33:09.359Z,99671.22
2018-12-12T11:35:36.912Z,99664.30
2018-12-12T11:38:05.670Z,99660.88
2018-12-12T11:40:33.820Z,99657.84
2018-12-12T11:43:01.425Z,99663.64
2018-12-12T11:45:28.997Z,99662.55
2018-12-12T11:47:56.758Z,99666.84
2018-12-12T11:50:24.934Z,99665.20
2018-12-12T11:52:54.281Z,99662.34
2018-12-12T11:55:21.840Z,99655.63
2018-12-12T11:57:49.487Z,99652.53
2018-12-12T12:00:17.032Z,99658.27
2018-12-12T12:02:44.602Z,99655.47
2018-12-12T12:05:12.798Z,99656.70
2018-12-12T12:07:42.214Z,99653.93
2018-12-12T12:10:09.973Z,99660.32
2018-12-12T12:12:38.026Z,99655.44
2018-12-12T12:15:06.853Z,99676.12
2018-12-12T12:17:37.400Z,99669.06
2018-12-12T12:20:05.168Z,99672.66
2018-12-12T12:22:35.557Z,99673.95
2018-12-12T12:25:04.077Z,99661.05
2018-12-12T12:27:32.734Z,99651.75
2018-12-12T12:30:01.345Z,99664.75
2018-12-12T12:32:28.881Z,99675.13
2018-12-12T12:35:00.206Z,99679.72
2018-12-12T12:37:29.367Z,99682.33
2018-12-12T12:43:02.637Z,99688.13
2018-12-12T12:45:44.494Z,99685.03
2018-12-12T12:48:24.902Z,99681.86
2018-12-12T12:51:05.453Z,99667.46
2018-12-12T12:53:45.955Z,99675.73
2018-12-12T12:56:18.169Z,99672.62
2018-12-12T12:58:45.788Z,99685.08
2018-12-12T13:01:13.668Z,99685.14
2018-12-12T13:03:46.563Z,99675.30
2018-12-12T13:06:14.919Z,99679.68
2018-12-12T13:08:42.549Z,99670.14
2018-12-12T13:11:14.784Z,99673.20
2018-12-12T13:13:54.248Z,99672.95
2018-12-12T13:16:21.839Z,99672.47
2018-12-12T13:18:49.459Z,99687.40
2018-12-12T13:21:17.009Z,99688.29
2018-12-12T13:23:45.374Z,99698.02
2018-12-12T13:26:14.351Z,99701.52
2018-12-12T13:28:41.975Z,99702.80
2018-12-12T13:31:09.571Z,99697.85
2018-12-12T13:33:37.911Z,99702.75
2018-12-12T13:36:06.019Z,99710.70
2018-12-12T13:38:34.609Z,99706.06
2018-12-12T13:41:02.715Z,99713.16
2018-12-12T13:43:32.243Z,99715.66
2018-12-12T13:46:00.314Z,99715.49
2018-12-12T13:48:28.027Z,99710.86
2018-12-12T13:50:55.575Z,99716.34
2018-12-12T13:53:23.136Z,99724.63
2018-12-12T13:55:51.820Z,99738.30
2018-12-12T13:58:19.400Z,99734.79
2018-12-12T14:00:47.569Z,99736.22
2018-12-12T14:03:15.172Z,99742.66
2018-12-12T14:05:42.733Z,99745.12
2018-12-12T14:08:10.410Z,99752.58
2018-12-12T14:10:37.959Z,99753.95
2018-12-12T14:13:05.574Z,99757.13
2018-12-12T14:15:34.103Z,99761.19
2018-12-12T14:18:01.723Z,99766.59
2018-12-12T14:20:29.252Z,99765.58
2018-12-12T14:22:56.830Z,99764.99
2018-12-12T14:25:25.581Z,99768.59
2018-12-12T14:27:53.114Z,99767.53
2018-12-12T14:30:20.996Z,99767.48
2018-12-12T14:32:48.521Z,99772.59
2018-12-12T14:35:16.173Z,99781.92
2018-12-12T14:37:43.733Z,99782.08
2018-12-12T14:40:11.315Z,99775.27
2018-12-12T14:42:41.652Z,99779.25
2018-12-12T14:45:09.832Z,99785.35
2018-12-12T14:47:38.296Z,99785.41
2018-12-12T14:50:05.877Z,99790.16
2018-12-12T14:52:33.414Z,99792.31
2018-12-12T14:55:00.947Z,99788.44
2018-12-12T14:57:28.581Z,99787.60
2018-12-12T14:59:56.157Z,99790.19
2018-12-12T15:02:23.722Z,99792.34
2018-12-12T15:04:51.305Z,99794.50
2018-12-12T15:07:18.877Z,99793.61
2018-12-12T15:09:46.416Z,99796.18
2018-12-12T15:12:13.972Z,99797.89
2018-12-12T15:14:41.485Z,99797.45
2018-12-12T15:17:09.055Z,99800.88
2018-12-12T15:19:36.574Z,99799.12
2018-12-12T15:22:04.251Z,99807.27
2018-12-12T15:24:31.764Z,99808.58
2018-12-12T15:27:00.102Z,99810.27
2018-12-12T15:29:27.621Z,99816.72
2018-12-12T15:31:55.137Z,99816.30
2018-12-12T15:34:22.664Z,99829.16
2018-12-12T15:36:50.186Z,99824.03
2018-12-12T15:39:17.743Z,99827.47
2018-12-12T15:41:45.258Z,99827.52
2018-12-12T15:44:12.816Z,99827.91
2018-12-12T15:46:40.352Z,99833.53
2018-12-12T15:49:07.874Z,99831.45
2018-12-12T15:51:48.481Z,99830.17
2018-12-12T15:54:22.132Z,99833.19
2018-12-12T15:56:49.672Z,99831.03
2018-12-12T15:59:17.197Z,99829.73
2018-12-12T16:01:46.810Z,99830.99
2018-12-12T16:04:27.185Z,99831.42
2018-12-12T16:07:07.648Z,99830.59
2018-12-12T16:09:49.122Z,99833.57
2018-12-12T16:12:29.641Z,99841.30
2018-12-12T16:15:10.802Z,99841.27
2018-12-12T16:17:52.479Z,99841.27
2018-12-12T16:20:33.114Z,99854.59
2018-12-12T16:23:13.661Z,99848.53
2018-12-12T16:25:54.088Z,99849.86
2018-12-12T16:28:34.570Z,99851.15
2018-12-12T16:31:16.183Z,99847.26
2018-12-12T16:33:56.685Z,99858.42
2018-12-12T16:36:37.269Z,99862.28
2018-12-12T16:39:17.802Z,99862.27
2018-12-12T16:41:58.963Z,99858.38
2018-12-12T16:44:26.572Z,99858.39
2018-12-12T16:46:54.178Z,99857.09
2018-12-12T16:49:21.702Z,99854.09
2018-12-12T16:51:50.180Z,99854.92
2018-12-12T16:54:17.691Z,99853.66
2018-12-12T16:56:45.270Z,99857.13
2018-12-12T16:59:12.832Z,99854.11
2018-12-12T17:01:41.170Z,99848.87
2018-12-12T17:04:08.748Z,99861.80
2018-12-12T17:06:36.282Z,99857.03
2018-12-12T17:09:06.035Z,99856.59
2018-12-12T17:11:34.630Z,99853.04
2018-12-12T17:14:02.148Z,99868.08
2018-12-12T17:16:29.653Z,99865.02
2018-12-12T17:18:57.194Z,99857.61
2018-12-12T17:21:25.400Z,99862.34
2018-12-12T17:23:53.429Z,99867.45
2018-12-12T17:26:21.276Z,99858.85
2018-12-12T17:28:49.306Z,99869.06
2018-12-12T17:31:16.871Z,99866.91
2018-12-12T17:33:46.046Z,99868.23
2018-12-12T17:36:13.624Z,99875.05
2018-12-12T17:38:41.144Z,99872.01
2018-12-12T17:41:09.670Z,99875.02
2018-12-12T17:43:37.207Z,99869.06
2018-12-12T17:46:04.778Z,99877.66
2018-12-12T17:48:35.979Z,99865.51
2018-12-12T17:51:03.548Z,99874.04
2018-12-12T17:53:31.124Z,99870.66
2018-12-12T17:55:58.717Z,99871.95
2018-12-12T17:58:26.245Z,99874.56
2018-12-12T18:00:53.866Z,99880.17
2018-12-12T18:03:21.421Z,99884.56
2018-12-12T18:05:50.078Z,99893.63
2018-12-12T18:08:17.609Z,99894.87
2018-12-12T18:10:45.143Z,99892.27
2018-12-12T18:13:12.714Z,99894.87
2018-12-12T18:15:40.351Z,99901.41
2018-12-12T18:18:07.880Z,99902.73
2018-12-12T18:20:36.539Z,99895.42
2018-12-12T18:23:04.187Z,99897.60
2018-12-12T18:25:32.257Z,99895.37
2018-12-12T18:27:59.846Z,99901.47
2018-12-12T18:30:27.435Z,99901.90
2018-12-12T18:32:56.503Z,99912.19
2018-12-12T18:35:24.207Z,99916.44
2018-12-12T18:37:51.809Z,99917.91
2018-12-12T18:40:19.367Z,99923.60
2018-12-12T18:42:46.899Z,99915.64
2018-12-12T18:45:15.001Z,99921.84
2018-12-12T18:47:42.559Z,99924.19
2018-12-12T18:50:10.136Z,99926.78
2018-12-12T18:52:38.657Z,99932.05
2018-12-12T18:55:06.175Z,99931.83
2018-12-12T18:57:34.712Z,99932.05
2018-12-12T19:00:03.186Z,99930.39
2018-12-12T19:02:30.720Z,99926.20
2018-12-12T19:04:58.276Z,99931.40
2018-12-12T19:07:25.794Z,99943.41
2018-12-12T19:09:56.152Z,99935.34
2018-12-12T19:12:23.785Z,99933.25
2018-12-12T19:15:01.547Z,99933.58
2018-12-12T19:20:15.591Z,99940.77
2018-12-12T19:22:43.335Z,99935.58
2018-12-12T19:25:11.068Z,99935.20
2018-12-12T19:27:39.622Z,99933.11
2018-12-12T19:30:08.935Z,99931.20
2018-12-12T19:32:36.566Z,99933.50
2018-12-12T19:35:06.581Z,99937.55
2018-12-12T19:37:34.109Z,99936.74
2018-12-12T19:40:04.614Z,99934.97
2018-12-12T19:45:49.186Z,99935.59
2018-12-12T19:48:30.625Z,99937.21
2018-12-12T19:51:12.320Z,99938.31
2018-12-12T19:53:53.962Z,99935.67
2018-12-12T19:56:36.366Z,99936.44
2018-12-12T20:16:18.515Z,99940.36
2018-12-12T20:18:46.924Z,99938.33
2018-12-12T20:21:14.567Z,99937.52
2018-12-12T20:23:42.200Z,99932.86
2018-12-12T20:26:09.773Z,99934.08
2018-12-12T20:28:37.327Z,99936.45
2018-12-12T20:31:05.573Z,99931.35
2018-12-12T20:33:33.147Z,99929.47
2018-12-12T20:36:00.888Z,99931.95
2018-12-12T20:38:28.492Z,99927.23
2018-12-12T20:40:56.084Z,99933.88
2018-12-12T20:43:23.784Z,99936.70
2018-12-12T20:46:10.333Z,99935.10
2018-12-12T21:17:20.462Z,99963.99
2018-12-12T21:19:48.062Z,99970.93
2018-12-12T21:22:16.088Z,99974.77
2018-12-12T21:24:43.681Z,99972.02
2018-12-12T21:43:03.708Z,99973.51
2018-12-12T21:49:16.107Z,99970.15
2018-12-12T21:55:38.855Z,99967.11
2018-12-12T22:01:56.383Z,99964.80
2018-12-12T22:08:08.321Z,99962.72
2018-12-12T22:30:41.147Z,99955.19
2018-12-12T22:56:16.781Z,99946.47
2018-12-12T23:02:04.413Z,99948.86
